Time;durP1;ratioP1;P1;durP2;ratioP2;P2;SDS_P1;SDS_P2;PMS_P1;PMS_P2;Temp;Humidity;BMP_temperature;BMP_pressure;BME280_temperature;BME280_humidity;BME280_pressure;Samples;Min_cycle;Max_cycle;Signal;HPM_P1;HPM_P2
2021/06/11 00:00:53;;;;;;;9.35;6.97;;;;;;;16.58;100.00;99215.23;1758281;80;20968;-54
2021/06/11 00:03:19;;;;;;;7.42;5.87;;;;;;;16.58;100.00;99215.23;1759058;79;20972;-54
2021/06/11 00:09:10;;;;;;;7.85;6.62;;;;;;;16.60;100.00;99217.33;1783773;79;22766;-53
2021/06/11 00:11:36;;;;;;;10.53;6.50;;;;;;;16.56;100.00;99213.63;1758606;80;20986;-54
2021/06/11 00:14:07;;;;;;;8.03;6.60;;;;;;;16.55;100.00;99225.01;1761013;80;21187;-53
2021/06/11 00:16:34;;;;;;;7.95;7.03;;;;;;;16.54;100.00;99218.34;1760403;80;21531;-54
2021/06/11 00:19:01;;;;;;;6.70;5.62;;;;;;;16.53;100.00;99218.84;1759700;80;21423;-52
2021/06/11 00:21:28;;;;;;;7.22;6.08;;;;;;;16.50;100.00;99215.00;1758653;80;20966;-53
2021/06/11 00:23:56;;;;;;;6.25;5.65;;;;;;;16.51;100.00;99218.08;1760370;80;21592;-54
2021/06/11 00:26:23;;;;;;;5.92;5.33;;;;;;;16.49;100.00;99228.25;1760345;80;21089;-53
2021/06/11 00:28:50;;;;;;;6.50;5.87;;;;;;;16.47;100.00;99235.69;1763799;79;20949;-52
2021/06/11 00:31:18;;;;;;;7.75;6.85;;;;;;;16.46;100.00;99233.96;1705671;83;20928;-54
2021/06/11 00:33:45;;;;;;;6.67;5.97;;;;;;;16.47;100.00;99237.05;1701024;82;21634;-52
2021/06/11 00:36:12;;;;;;;7.10;6.25;;;;;;;16.46;100.00;99225.80;1702337;82;21478;-52
2021/06/11 00:38:40;;;;;;;9.35;6.80;;;;;;;16.44;100.00;99220.45;1699872;82;21087;-52
2021/06/11 00:41:07;;;;;;;8.63;6.03;;;;;;;16.44;100.00;99233.20;1706795;82;20958;-53
2021/06/11 00:43:34;;;;;;;8.50;6.60;;;;;;;16.42;100.00;99220.23;1699514;83;21018;-51
2021/06/11 00:46:01;;;;;;;8.63;6.75;;;;;;;16.39;100.00;99224.55;1727381;81;21451;-54
2021/06/11 00:48:27;;;;;;;7.08;6.47;;;;;;;16.40;100.00;99234.44;1729041;81;20923;-53
2021/06/11 00:50:56;;;;;;;8.35;6.80;;;;;;;16.39;100.00;99235.44;1710660;82;21183;-53
2021/06/11 00:53:23;;;;;;;7.25;6.55;;;;;;;16.38;100.00;99233.72;1711646;82;20974;-53
2021/06/11 00:55:50;;;;;;;7.33;5.80;;;;;;;16.38;100.00;99231.86;1709975;82;21461;-53
2021/06/11 00:58:18;;;;;;;6.83;6.12;;;;;;;16.37;100.00;99242.88;1711147;82;20958;-53
2021/06/11 01:00:45;;;;;;;7.85;7.05;;;;;;;16.38;100.00;99240.52;1711430;82;20907;-52
2021/06/11 01:03:13;;;;;;;7.28;6.40;;;;;;;16.38;100.00;99236.44;1710776;82;21152;-52
2021/06/11 01:05:41;;;;;;;8.48;7.15;;;;;;;16.37;100.00;99232.86;1709475;82;21348;-52
2021/06/11 01:08:10;;;;;;;8.93;7.10;;;;;;;16.37;100.00;99237.44;1701243;82;20912;-54
2021/06/11 01:10:37;;;;;;;7.20;6.40;;;;;;;16.38;100.00;99241.88;1669148;84;21619;-55
2021/06/11 01:13:04;;;;;;;8.35;7.30;;;;;;;16.37;100.00;99237.44;1687266;83;20960;-53
2021/06/11 01:15:32;;;;;;;7.85;7.05;;;;;;;16.35;100.00;99231.23;1687593;83;21087;-54
2021/06/11 01:18:00;;;;;;;10.00;7.40;;;;;;;16.34;100.00;99233.59;1687090;83;21468;-54
2021/06/11 01:20:27;;;;;;;11.18;7.75;;;;;;;16.33;100.00;99249.05;1686451;83;20978;-53
2021/06/11 01:23:41;;;;;;;8.30;7.50;;;;;;;16.33;100.00;99235.95;1687394;83;20987;-53
2021/06/11 01:26:37;;;;;;;9.78;7.40;;;;;;;16.32;100.00;99232.37;1687080;83;21075;-53
2021/06/11 01:29:14;;;;;;;8.35;7.55;;;;;;;16.31;100.00;99243.39;1687837;83;21138;-52
2021/06/11 01:31:44;;;;;;;8.80;7.90;;;;;;;16.31;100.00;99242.02;1666749;84;20963;-54
2021/06/11 01:34:15;;;;;;;8.05;7.25;;;;;;;16.31;100.00;99239.30;1688099;83;21492;-55
2021/06/11 01:36:46;;;;;;;8.53;7.72;;;;;;;16.30;100.00;99238.91;1686922;83;20928;-53
2021/06/11 01:39:15;;;;;;;7.97;7.17;;;;;;;16.30;100.00;99239.80;1689732;83;20975;-54
2021/06/11 01:41:42;;;;;;;7.95;7.15;;;;;;;16.30;100.00;99247.08;1688310;83;21853;-54
2021/06/11 01:44:09;;;;;;;7.95;7.25;;;;;;;16.30;100.00;99242.52;1689143;84;20965;-49
2021/06/11 01:48:28;;;;;;;11.22;7.53;;;;;;;16.38;100.00;99237.80;1774579;78;22700;-49
2021/06/11 01:50:55;;;;;;;8.95;7.85;;;;;;;16.33;100.00;99244.11;1728344;81;20915;-48
2021/06/11 01:53:22;;;;;;;10.55;8.18;;;;;;;16.34;100.00;99248.56;1722973;82;21922;-50
2021/06/11 01:55:49;;;;;;;10.15;8.05;;;;;;;16.34;100.00;99239.90;1729191;82;20920;-50
2021/06/11 01:58:17;;;;;;;10.10;7.17;;;;;;;16.36;100.00;99238.44;1724522;82;21016;-49
2021/06/11 02:00:45;;;;;;;8.98;7.67;;;;;;;16.37;100.00;99240.16;1696439;82;20959;-49
2021/06/11 02:03:13;;;;;;;9.78;6.90;;;;;;;16.38;100.00;99245.97;1729946;82;20896;-48
2021/06/11 02:05:40;;;;;;;8.73;7.30;;;;;;;16.39;100.00;99246.33;1727012;82;21078;-49
2021/06/11 02:08:07;;;;;;;9.15;7.10;;;;;;;16.40;100.00;99248.05;1723465;80;20983;-49
2021/06/11 02:10:34;;;;;;;7.65;6.92;;;;;;;16.42;100.00;99251.53;1727639;82;21684;-48
2021/06/11 02:13:01;;;;;;;9.65;7.35;;;;;;;16.44;100.00;99242.23;1715645;82;20868;-49
2021/06/11 02:15:28;;;;;;;7.55;6.85;;;;;;;16.46;100.00;99242.98;1725642;82;21400;-54
2021/06/11 02:17:56;;;;;;;8.30;7.35;;;;;;;16.47;100.00;99254.74;1727420;80;21163;-54
2021/06/11 02:20:24;;;;;;;14.58;7.05;;;;;;;16.50;100.00;99263.99;1726636;82;20974;-55
2021/06/11 02:22:50;;;;;;;8.15;6.70;;;;;;;16.51;100.00;99258.91;1726440;82;21103;-53
2021/06/11 02:25:22;;;;;;;8.55;6.78;;;;;;;16.53;100.00;99252.87;1728649;80;20978;-54
2021/06/11 02:27:49;;;;;;;7.67;6.83;;;;;;;16.55;100.00;99253.59;1695922;82;20916;-52
2021/06/11 02:30:18;;;;;;;7.12;6.50;;;;;;;16.56;100.00;99256.67;1723281;82;21107;-53
2021/06/11 02:32:45;;;;;;;7.58;6.47;;;;;;;16.58;100.00;99260.16;1725497;82;20891;-54
2021/06/11 02:35:23;;;;;;;7.53;6.83;;;;;;;16.58;100.00;99262.88;1722000;82;20963;-54
2021/06/11 02:37:50;;;;;;;7.90;6.20;;;;;;;16.60;100.00;99252.72;1722163;82;21831;-54
2021/06/11 02:40:17;;;;;;;9.43;7.10;;;;;;;16.60;100.00;99252.72;1725271;82;20939;-48
2021/06/11 02:42:48;;;;;;;7.42;6.55;;;;;;;16.61;100.00;99255.80;1723517;82;21072;-48
2021/06/11 02:45:22;;;;;;;7.45;6.75;;;;;;;16.62;100.00;99254.83;1725636;82;20955;-49
2021/06/11 02:48:29;;;;;;;8.85;6.65;;;;;;;16.63;100.00;99259.28;1714490;82;20976;-48
2021/06/11 02:51:36;;;;;;;8.83;7.90;;;;;;;16.63;100.00;99254.33;1709566;82;21429;-46
2021/06/11 02:54:03;;;;;;;8.98;8.08;;;;;;;16.64;100.00;99256.92;1709288;82;20979;-52
2021/06/11 02:56:45;;;;;;;7.92;7.10;;;;;;;16.64;100.00;99256.92;1710704;82;21766;-53
2021/06/11 02:59:18;;;;;;;8.08;7.28;;;;;;;16.64;100.00;99262.36;1709796;82;21409;-55
2021/06/11 03:01:50;;;;;;;10.88;6.90;;;;;;;16.66;100.00;99265.81;1708579;82;20916;-55
2021/06/11 03:04:18;;;;;;;8.18;7.37;;;;;;;16.65;100.00;99261.37;1710271;82;21438;-58
2021/06/11 03:06:45;;;;;;;9.25;6.65;;;;;;;16.68;100.00;99263.84;1707792;82;21083;-54
2021/06/11 03:09:13;;;;;;;11.70;7.53;;;;;;;16.67;100.00;99264.84;1708006;82;21093;-55
2021/06/11 03:11:41;;;;;;;9.20;6.78;;;;;;;16.68;100.00;99268.43;1663805;85;20951;-51
2021/06/11 03:14:08;;;;;;;9.25;7.05;;;;;;;16.67;100.00;99269.40;1623862;84;20975;-50
2021/06/11 03:16:35;;;;;;;7.72;6.87;;;;;;;16.66;100.00;99276.70;1640710;84;21752;-48
2021/06/11 03:19:09;;;;;;;8.13;6.53;;;;;;;16.61;100.00;99270.77;1671189;84;20984;-49
2021/06/11 03:21:41;;;;;;;7.50;6.80;;;;;;;16.60;100.00;99271.77;1670552;84;21160;-49
2021/06/11 03:24:28;;;;;;;9.00;6.87;;;;;;;16.61;100.00;99281.66;1670497;84;21043;-48
2021/06/11 03:27:09;;;;;;;7.80;7.00;;;;;;;16.59;100.00;99276.00;1667532;84;20915;-49
2021/06/11 03:29:39;;;;;;;7.97;6.20;;;;;;;16.58;100.00;99276.49;1671197;84;21568;-49
2021/06/11 03:32:10;;;;;;;8.88;7.97;;;;;;;16.57;100.00;99280.21;1672276;83;20972;-49
2021/06/11 03:34:43;;;;;;;9.58;6.90;;;;;;;16.56;100.00;99281.18;1674023;84;21134;-52
2021/06/11 03:37:16;;;;;;;9.50;7.53;;;;;;;16.56;100.00;99286.63;1641665;84;20960;-48
2021/06/11 03:39:50;;;;;;;9.55;7.53;;;;;;;16.51;100.00;99280.69;1671013;84;21489;-49
2021/06/11 03:42:18;;;;;;;11.63;7.35;;;;;;;16.49;100.00;99285.41;1672659;84;20980;-50
2021/06/11 03:44:48;;;;;;;9.58;8.45;;;;;;;16.47;100.00;99290.13;1668851;84;20995;-49
2021/06/11 03:47:19;;;;;;;8.47;7.67;;;;;;;16.44;100.00;99287.64;1669230;84;21103;-50
2021/06/11 03:49:47;;;;;;;10.03;8.15;;;;;;;16.42;100.00;99285.55;1669548;84;20955;-48
2021/06/11 03:52:14;;;;;;;10.43;8.50;;;;;;;16.41;100.00;99282.47;1670565;84;21486;-49
2021/06/11 03:54:44;;;;;;;9.83;8.48;;;;;;;16.39;100.00;99276.27;1670178;84;20963;-49
2021/06/11 03:57:11;;;;;;;9.30;8.20;;;;;;;16.41;100.00;99285.19;1670544;83;21501;-49
2021/06/11 03:59:40;;;;;;;11.25;8.23;;;;;;;16.40;100.00;99283.44;1671464;84;21160;-48
2021/06/11 04:02:07;;;;;;;11.35;8.75;;;;;;;16.40;100.00;99283.44;1670470;84;21588;-50
2021/06/11 04:04:34;;;;;;;12.15;9.75;;;;;;;16.42;100.00;99290.50;1670881;84;20999;-48
2021/06/11 04:07:11;;;;;;;9.78;8.55;;;;;;;16.44;100.00;99290.36;1670464;83;20968;-49
2021/06/11 04:09:47;;;;;;;11.57;8.85;;;;;;;16.45;100.00;99288.00;1670703;84;21015;-50
2021/06/11 04:12:24;;;;;;;9.38;8.08;;;;;;;16.48;100.00;99297.30;1646841;84;21468;-48
2021/06/11 04:14:52;;;;;;;14.85;9.30;;;;;;;16.50;100.00;99306.19;1672088;84;20960;-49
2021/06/11 04:17:25;;;;;;;10.95;9.38;;;;;;;16.47;100.00;99292.84;1669901;84;21087;-49
2021/06/11 04:19:55;;;;;;;9.00;8.05;;;;;;;16.48;100.00;99302.73;1670141;84;20972;-50
2021/06/11 04:22:28;;;;;;;8.98;8.08;;;;;;;16.51;100.00;99305.19;1670427;84;20956;-49
2021/06/11 04:24:56;;;;;;;14.23;10.10;;;;;;;16.53;100.00;99300.50;1671328;83;21948;-50
2021/06/11 04:27:22;;;;;;;10.68;9.40;;;;;;;16.53;100.00;99295.06;1671669;84;20951;-49
2021/06/11 04:29:49;;;;;;;9.40;8.45;;;;;;;16.54;100.00;99304.95;1670554;84;21567;-50
2021/06/11 04:32:17;;;;;;;11.88;9.93;;;;;;;16.57;100.00;99299.27;1669527;84;21547;-49
2021/06/11 04:34:47;;;;;;;12.10;9.18;;;;;;;16.58;100.00;99310.52;1674902;84;20932;-49
2021/06/11 04:37:18;;;;;;;13.62;10.23;;;;;;;16.56;100.00;99311.12;1670780;84;21116;-50
2021/06/11 04:39:45;;;;;;;10.75;9.65;;;;;;;16.57;100.00;99310.16;1669889;84;20912;-49
2021/06/11 04:42:12;;;;;;;11.15;9.98;;;;;;;16.58;100.00;99300.99;1672932;84;20960;-50
2021/06/11 04:44:39;;;;;;;11.40;9.53;;;;;;;16.59;100.00;99305.44;1670375;83;21114;-49
2021/06/11 04:47:06;;;;;;;13.18;9.90;;;;;;;16.61;100.00;99314.33;1670233;84;21509;-49
2021/06/11 04:49:33;;;;;;;12.35;10.43;;;;;;;16.61;100.00;99314.33;1685748;83;21089;-50
2021/06/11 04:52:00;;;;;;;11.03;8.45;;;;;;;16.66;100.00;99307.16;1674851;84;20987;-51
2021/06/11 04:54:27;;;;;;;10.68;9.53;;;;;;;16.69;100.00;99305.05;1687199;83;21112;-48
2021/06/11 04:56:54;;;;;;;10.68;9.00;;;;;;;16.75;100.00;99311.38;1687841;83;20935;-51
2021/06/11 04:59:21;;;;;;;11.33;10.30;;;;;;;16.79;100.00;99311.14;1678980;84;21018;-49
2021/06/11 05:01:48;;;;;;;13.83;10.28;;;;;;;16.75;100.00;99309.16;1686101;83;21524;-49
2021/06/11 05:04:15;;;;;;;11.48;10.30;;;;;;;16.78;100.00;99320.28;1678472;84;21607;-49
2021/06/11 05:06:42;;;;;;;10.40;9.40;;;;;;;16.79;100.00;99317.95;1663237;83;21529;-51
2021/06/11 05:09:09;;;;;;;12.37;9.70;;;;;;;16.81;100.00;99309.14;1679069;83;20999;-51
2021/06/11 05:11:37;;;;;;;11.45;9.80;;;;;;;16.87;100.00;99311.36;1688959;83;21397;-54
